Time;durP1;ratioP1;P1;durP2;ratioP2;P2;SDS_P1;SDS_P2;PMS_P1;PMS_P2;Temp;Humidity;BMP_temperature;BMP_pressure;BME280_temperature;BME280_humidity;BME280_pressure;Samples;Min_cycle;Max_cycle;Signal;HPM_P1;HPM_P2
2021/11/03 00:01:32;;;;;;;23.38;13.55;;;;;;;8.14;62.44;100200.16;3498749;28;20043;-70
2021/11/03 00:03:14;;;;;;;20.65;12.25;;;;;;;8.12;62.88;100208.28;3489995;28;20647;-71
2021/11/03 00:04:56;;;;;;;23.75;13.68;;;;;;;8.11;62.72;100196.00;3495907;28;20036;-72
2021/11/03 00:06:39;;;;;;;20.40;12.43;;;;;;;8.08;62.76;100191.84;3496348;28;20066;-70
2021/11/03 00:08:23;;;;;;;18.73;11.48;;;;;;;8.06;63.01;100196.50;3482848;28;20076;-70
2021/11/03 00:10:06;;;;;;;19.65;11.55;;;;;;;8.06;62.99;100201.81;3500169;28;20043;-72
2021/11/03 00:11:47;;;;;;;21.55;12.68;;;;;;;8.04;62.96;100198.47;3500335;28;20048;-72
2021/11/03 00:13:29;;;;;;;18.27;11.48;;;;;;;8.05;62.88;100196.66;3480731;28;20045;-73
2021/11/03 00:15:11;;;;;;;20.33;11.48;;;;;;;8.05;62.97;100199.31;3492752;28;20453;-71
2021/11/03 00:16:53;;;;;;;23.52;12.73;;;;;;;8.04;63.04;100193.16;3498916;28;20039;-72
2021/11/03 00:18:33;;;;;;;19.73;12.32;;;;;;;8.04;62.86;100195.00;3502324;28;20036;-71
2021/11/03 00:20:14;;;;;;;18.48;11.73;;;;;;;8.03;62.97;100191.53;3505883;28;20507;-72
2021/11/03 00:21:55;;;;;;;20.42;11.30;;;;;;;8.01;63.14;100200.66;3508131;28;20060;-71
2021/11/03 00:23:36;;;;;;;18.85;11.27;;;;;;;8.00;63.24;100185.69;3508606;28;20147;-70
2021/11/03 00:25:16;;;;;;;16.50;10.73;;;;;;;7.98;63.11;100191.19;3507954;28;20046;-71
2021/11/03 00:26:57;;;;;;;22.42;12.77;;;;;;;8.00;63.09;100186.56;3509586;28;20040;-71
2021/11/03 00:28:38;;;;;;;24.38;12.65;;;;;;;8.02;63.21;100196.97;3508880;28;20036;-72
2021/11/03 00:30:20;;;;;;;19.83;11.45;;;;;;;8.01;62.93;100188.19;3494824;28;20045;-72
2021/11/03 00:32:00;;;;;;;20.55;12.77;;;;;;;8.03;62.96;100190.69;3478070;28;20409;-71
2021/11/03 00:33:41;;;;;;;21.38;11.90;;;;;;;8.00;63.13;100191.84;3501353;28;20147;-71
2021/11/03 00:35:22;;;;;;;21.23;11.85;;;;;;;8.01;63.28;100190.03;3509194;28;20067;-71
2021/11/03 00:37:03;;;;;;;19.45;11.80;;;;;;;7.99;63.32;100178.75;3509584;28;20523;-71
2021/11/03 00:38:44;;;;;;;22.58;12.52;;;;;;;8.00;63.21;100188.34;3494729;28;20045;-72
2021/11/03 00:40:26;;;;;;;18.30;10.32;;;;;;;7.96;63.21;100179.91;3506263;28;20055;-71
2021/11/03 00:42:07;;;;;;;22.45;12.27;;;;;;;7.99;63.36;100186.69;3494789;28;20045;-72
2021/11/03 00:43:48;;;;;;;20.27;12.27;;;;;;;7.99;63.45;100184.03;3480974;28;20465;-73
2021/11/03 00:45:28;;;;;;;23.58;12.20;;;;;;;7.97;63.35;100180.72;3502156;28;20028;-71
2021/11/03 00:47:10;;;;;;;20.35;12.13;;;;;;;7.99;63.35;100186.69;3494659;28;20527;-71
2021/11/03 00:48:51;;;;;;;25.30;12.63;;;;;;;7.98;63.51;100191.19;3477529;28;20520;-71
2021/11/03 00:50:33;;;;;;;23.15;12.70;;;;;;;7.96;63.64;100185.22;3485004;28;20102;-71
2021/11/03 00:52:14;;;;;;;19.50;11.33;;;;;;;7.95;63.49;100177.41;3491929;28;20083;-71
2021/11/03 00:53:54;;;;;;;22.98;12.43;;;;;;;7.95;63.79;100177.41;3483718;28;20309;-72
2021/11/03 00:55:35;;;;;;;20.88;11.82;;;;;;;7.92;63.86;100180.38;3490925;28;20068;-72
2021/11/03 00:57:16;;;;;;;22.58;11.60;;;;;;;7.95;63.94;100180.06;3490774;28;20037;-71
2021/11/03 00:58:58;;;;;;;19.65;11.20;;;;;;;7.89;63.75;100178.91;3492322;28;20094;-72
2021/11/03 01:00:39;;;;;;;19.77;11.75;;;;;;;7.93;64.07;100179.41;3491094;28;20468;-73
2021/11/03 01:02:20;;;;;;;21.20;11.95;;;;;;;7.95;63.84;100188.00;3492033;28;20079;-70
2021/11/03 01:04:01;;;;;;;20.37;11.80;;;;;;;7.94;63.94;100175.75;3493935;28;20040;-73
2021/11/03 01:05:43;;;;;;;20.15;11.55;;;;;;;7.95;63.85;100177.41;3506253;28;20286;-71
2021/11/03 01:07:24;;;;;;;20.38;11.63;;;;;;;7.92;63.97;100172.44;3495660;28;20041;-73
2021/11/03 01:09:05;;;;;;;23.35;11.63;;;;;;;7.94;64.26;100170.44;3480905;28;20120;-71
2021/11/03 01:10:49;;;;;;;21.37;10.80;;;;;;;7.92;64.26;100173.25;3496781;28;20093;-72
2021/11/03 01:12:30;;;;;;;21.58;11.27;;;;;;;7.90;64.02;100169.09;3480828;28;20302;-72
2021/11/03 01:14:11;;;;;;;18.42;10.65;;;;;;;7.95;64.25;100172.09;3503887;28;20506;-72
2021/11/03 01:15:57;;;;;;;17.90;10.45;;;;;;;7.94;64.30;100171.28;3506231;28;20479;-72
2021/11/03 01:17:38;;;;;;;21.40;12.52;;;;;;;7.93;64.24;100168.78;3490745;28;20037;-71
2021/11/03 01:19:18;;;;;;;20.40;10.77;;;;;;;7.95;64.48;100161.47;3506603;28;20375;-72
2021/11/03 01:21:01;;;;;;;17.17;10.23;;;;;;;7.95;64.46;100167.63;3508012;28;20040;-72
2021/11/03 01:22:42;;;;;;;18.77;10.95;;;;;;;7.94;64.47;100165.13;3493492;28;20095;-72
2021/11/03 01:24:24;;;;;;;20.20;11.97;;;;;;;7.96;64.30;100163.97;3506802;28;20044;-71
2021/11/03 01:26:04;;;;;;;19.37;9.93;;;;;;;7.96;64.13;100168.47;3504463;28;20044;-72
2021/11/03 01:27:45;;;;;;;19.13;11.15;;;;;;;7.95;64.50;100170.28;3508370;28;20135;-71
2021/11/03 01:29:26;;;;;;;20.05;11.98;;;;;;;7.97;64.64;100165.63;3491149;28;20039;-71
2021/11/03 01:31:06;;;;;;;21.77;11.80;;;;;;;7.98;64.69;100171.78;3500240;28;20445;-71
2021/11/03 01:32:48;;;;;;;20.13;10.90;;;;;;;7.95;64.70;100172.94;3482315;28;20033;-72
2021/11/03 01:34:29;;;;;;;19.13;10.98;;;;;;;7.95;64.51;100161.47;3491755;28;20628;-72
2021/11/03 01:36:11;;;;;;;28.00;13.73;;;;;;;7.96;64.60;100160.50;3506472;28;21721;-71
2021/11/03 01:37:52;;;;;;;18.75;10.75;;;;;;;7.95;64.59;100161.47;3496707;28;20052;-72
2021/11/03 01:39:33;;;;;;;18.83;11.30;;;;;;;7.97;64.70;100164.78;3493552;28;20431;-69
2021/11/03 01:41:14;;;;;;;22.23;10.80;;;;;;;7.98;64.66;100161.16;3494147;28;20041;-72
2021/11/03 01:42:56;;;;;;;22.65;12.85;;;;;;;7.93;64.69;100147.56;3479459;28;20044;-71
2021/11/03 01:44:36;;;;;;;20.05;10.75;;;;;;;7.93;64.60;100153.69;3491390;28;20097;-71
2021/11/03 01:46:32;;;;;;;20.10;10.80;;;;;;;7.96;65.09;100152.53;3492855;28;20041;-71
2021/11/03 01:48:26;;;;;;;18.55;10.52;;;;;;;7.94;64.88;100154.53;3483087;28;20116;-72
2021/11/03 01:50:13;;;;;;;18.02;9.85;;;;;;;7.95;64.93;100151.72;3493142;28;20495;-71
2021/11/03 01:51:57;;;;;;;23.63;12.73;;;;;;;7.92;64.88;100148.53;3481056;28;20073;-70
2021/11/03 01:53:39;;;;;;;18.35;11.20;;;;;;;7.93;64.88;100142.25;3480734;28;20045;-72
2021/11/03 01:55:21;;;;;;;17.63;9.97;;;;;;;7.95;64.92;100149.06;3476670;28;20036;-72
2021/11/03 01:57:05;;;;;;;17.25;10.85;;;;;;;7.94;64.92;100144.72;3489445;28;20708;-73
2021/11/03 01:58:51;;;;;;;19.45;11.18;;;;;;;7.95;64.95;100140.25;3487171;28;20072;-74
2021/11/03 02:00:35;;;;;;;21.10;11.45;;;;;;;7.95;64.96;100148.19;3471119;28;20032;-74
2021/11/03 02:02:19;;;;;;;24.23;10.25;;;;;;;7.96;65.10;100141.91;3477668;28;20068;-72
2021/11/03 02:04:02;;;;;;;21.85;12.10;;;;;;;7.96;64.82;100147.22;3480999;28;20052;-74
2021/11/03 02:05:47;;;;;;;18.45;9.95;;;;;;;7.96;65.19;100150.69;3491321;28;20492;-73
2021/11/03 02:07:28;;;;;;;22.20;10.93;;;;;;;7.98;65.00;100140.75;3493320;28;20047;-73
2021/11/03 02:09:11;;;;;;;17.20;11.02;;;;;;;7.97;65.03;100156.84;3496029;28;20048;-72
2021/11/03 02:10:52;;;;;;;20.15;11.68;;;;;;;7.99;65.08;100146.88;3493662;28;20392;-73
2021/11/03 02:12:33;;;;;;;20.95;11.55;;;;;;;7.98;65.18;100142.59;3506732;28;20044;-73
2021/11/03 02:14:17;;;;;;;24.02;13.75;;;;;;;8.00;64.96;100135.25;3481522;28;20143;-73
2021/11/03 02:15:58;;;;;;;19.13;11.77;;;;;;;8.00;65.12;100148.53;3494532;28;20102;-74
2021/11/03 02:17:39;;;;;;;19.60;11.45;;;;;;;8.00;65.09;100127.31;3479719;28;20037;-74
2021/11/03 02:19:30;;;;;;;22.00;11.52;;;;;;;8.01;65.42;100131.63;3478726;28;20096;-73
2021/11/03 02:21:16;;;;;;;19.10;9.82;;;;;;;7.99;65.37;100138.94;3479609;28;20049;-73
2021/11/03 02:23:41;;;;;;;20.58;11.70;;;;;;;8.03;65.31;100146.41;3493023;28;20153;-73
2021/11/03 02:25:25;;;;;;;16.95;9.35;;;;;;;8.01;65.25;100134.28;3463935;28;20048;-72
2021/11/03 02:27:06;;;;;;;18.42;10.23;;;;;;;8.00;65.41;100140.56;3480144;28;20045;-72
2021/11/03 02:28:47;;;;;;;20.40;10.98;;;;;;;7.99;65.31;100141.56;3489867;28;20110;-73
2021/11/03 02:30:28;;;;;;;20.08;11.98;;;;;;;8.02;65.14;100128.78;3508903;28;20036;-72
2021/11/03 02:32:29;;;;;;;19.13;11.80;;;;;;;8.06;65.55;100131.97;3510870;28;20048;-73
2021/11/03 02:34:18;;;;;;;18.67;10.20;;;;;;;8.05;65.33;100130.28;3496898;28;20044;-70
2021/11/03 02:36:06;;;;;;;23.33;12.70;;;;;;;8.05;65.35;100131.13;3492497;28;20502;-71
2021/11/03 02:37:49;;;;;;;21.00;11.55;;;;;;;8.06;65.42;100138.09;3505279;28;20040;-71
2021/11/03 02:39:40;;;;;;;18.92;11.18;;;;;;;8.07;65.32;100133.59;3511342;28;20102;-71
2021/11/03 02:41:25;;;;;;;19.23;10.38;;;;;;;8.06;65.51;100134.63;3496171;28;20044;-71
2021/11/03 02:43:28;;;;;;;17.70;10.20;;;;;;;8.12;65.55;100135.75;3507617;28;20067;-72
2021/11/03 02:45:23;;;;;;;16.27;10.15;;;;;;;8.11;65.54;100134.13;3482120;28;20530;-71
2021/11/03 02:47:05;;;;;;;21.70;10.85;;;;;;;8.08;65.23;100130.78;3480356;28;20045;-71
2021/11/03 02:48:47;;;;;;;18.58;10.95;;;;;;;8.05;65.39;100120.53;3503117;28;20040;-72
2021/11/03 02:50:29;;;;;;;21.13;11.88;;;;;;;8.06;65.65;100135.44;3495668;28;20036;-71
2021/11/03 02:52:18;;;;;;;20.13;11.18;;;;;;;8.09;65.45;100128.97;3492982;28;20557;-72
2021/11/03 02:54:05;;;;;;;16.60;9.70;;;;;;;8.06;65.50;100119.50;3504631;28;20036;-71
2021/11/03 02:55:47;;;;;;;15.50;9.85;;;;;;;8.06;65.61;100121.34;3493719;28;20036;-71
2021/11/03 02:57:28;;;;;;;22.70;11.13;;;;;;;8.05;65.61;100114.34;3505116;28;20036;-72
2021/11/03 02:59:10;;;;;;;19.10;10.93;;;;;;;8.05;65.52;100115.22;3494539;28;20139;-71
2021/11/03 03:00:53;;;;;;;18.63;11.35;;;;;;;8.05;65.38;100115.22;3492739;28;20090;-71
2021/11/03 03:02:34;;;;;;;18.33;10.80;;;;;;;8.08;65.51;100129.97;3476663;28;20041;-71
2021/11/03 03:04:27;;;;;;;19.13;11.07;;;;;;;8.07;65.79;100115.03;3487780;28;20106;-72
2021/11/03 03:06:10;;;;;;;17.55;10.57;;;;;;;8.09;65.34;100099.75;3508734;28;20089;-73
2021/11/03 03:07:51;;;;;;;;;;;;;;;8.19;65.15;100129.63;3499360;28;20040;-70
2021/11/03 03:09:32;;;;;;;16.65;10.55;;;;;;;8.12;65.21;100123.31;3510784;28;19920;-72
2021/11/03 03:11:13;;;;;;;20.65;11.00;;;;;;;8.12;65.32;100125.97;3495127;28;20051;-71
2021/11/03 03:12:53;;;;;;;21.00;11.60;;;;;;;8.11;65.44;100124.31;3478001;28;21472;-71
2021/11/03 03:14:37;;;;;;;23.58;10.65;;;;;;;8.10;65.55;100127.97;3488457;28;20040;-71
2021/11/03 03:16:20;;;;;;;25.48;11.88;;;;;;;8.09;65.61;100123.66;3486792;28;20060;-71
2021/11/03 03:18:01;;;;;;;;;;;;;;;8.19;65.24;100116.34;3488447;28;20036;-71
2021/11/03 03:19:42;;;;;;;20.55;11.95;;;;;;;8.13;65.24;100116.16;3492553;28;20386;-72
2021/11/03 03:21:23;;;;;;;21.73;11.30;;;;;;;8.13;65.40;100116.16;3491276;28;20040;-72
2021/11/03 03:23:04;;;;;;;22.95;12.10;;;;;;;8.12;65.34;100125.16;3492031;28;20123;-72
2021/11/03 03:24:52;;;;;;;19.77;11.85;;;;;;;8.08;65.47;100106.09;3505552;28;20040;-72
2021/11/03 03:26:33;;;;;;;20.80;10.95;;;;;;;8.11;65.54;100110.22;3465152;28;20042;-72
2021/11/03 03:28:17;;;;;;;21.35;11.98;;;;;;;8.12;65.58;100120.66;3489981;28;20043;-72
2021/11/03 03:29:59;;;;;;;16.70;10.60;;;;;;;8.12;65.79;100107.38;3479817;28;20159;-72
2021/11/03 03:31:41;;;;;;;24.40;12.23;;;;;;;8.10;65.50;100109.38;3490231;28;20060;-71
2021/11/03 03:33:23;;;;;;;21.85;11.85;;;;;;;8.11;65.80;100103.09;3491990;28;20059;-71
2021/11/03 03:35:04;;;;;;;18.47;10.93;;;;;;;8.13;65.84;100105.56;3489810;28;20051;-72
2021/11/03 03:36:45;;;;;;;21.75;12.70;;;;;;;8.12;65.77;100104.72;3492993;28;20123;-71
2021/11/03 03:38:27;;;;;;;22.70;11.55;;;;;;;8.14;65.80;100105.41;3491473;28;20432;-70
2021/11/03 03:40:08;;;;;;;21.77;11.75;;;;;;;8.11;65.58;100089.81;3492497;28;20048;-71
2021/11/03 03:41:55;;;;;;;20.45;12.50;;;;;;;8.13;65.87;100101.09;3492534;28;20047;-71
2021/11/03 03:43:36;;;;;;;25.02;11.70;;;;;;;8.12;65.84;100094.13;3492117;28;20088;-71
2021/11/03 03:45:17;;;;;;;27.38;13.15;;;;;;;8.14;65.87;100102.75;3491421;28;20037;-72
2021/11/03 03:46:58;;;;;;;26.23;13.50;;;;;;;8.16;65.89;100094.59;3477134;28;20037;-71
2021/11/03 03:48:41;;;;;;;21.10;11.35;;;;;;;8.16;65.89;100084.81;3492621;28;20118;-72
2021/11/03 03:50:21;;;;;;;16.20;10.27;;;;;;;8.16;65.81;100095.44;3506462;28;20450;-71
2021/11/03 03:52:03;;;;;;;21.88;12.45;;;;;;;8.18;65.89;100101.38;3494488;28;20109;-72
2021/11/03 03:53:44;;;;;;;25.93;13.70;;;;;;;8.20;65.84;100096.75;3506145;28;20067;-72
2021/11/03 03:55:27;;;;;;;;;;;;;;;8.30;65.60;100091.25;3492351;28;21604;-71
2021/11/03 03:57:07;;;;;;;22.50;12.02;;;;;;;8.22;65.63;100086.78;3487003;28;20691;-72
2021/11/03 03:58:50;;;;;;;;;;;;;;;8.34;65.44;100089.06;3505029;28;20039;-73
2021/11/03 04:00:32;;;;;;;20.95;10.68;;;;;;;8.26;65.34;100085.47;3494998;28;20381;-72
2021/11/03 04:02:12;;;;;;;22.67;11.93;;;;;;;8.25;65.47;100080.31;3494859;28;20040;-72
2021/11/03 04:03:54;;;;;;;20.17;10.77;;;;;;;8.22;65.61;100084.13;3491433;28;20411;-71
2021/11/03 04:05:35;;;;;;;25.40;11.52;;;;;;;8.22;65.78;100078.81;3493342;28;20040;-71
2021/11/03 04:07:16;;;;;;;23.73;11.93;;;;;;;8.20;66.03;100083.47;3481673;28;20100;-72
2021/11/03 04:08:57;;;;;;;21.38;11.77;;;;;;;8.21;65.91;100071.88;3503192;28;20036;-71
2021/11/03 04:10:40;;;;;;;19.88;11.63;;;;;;;8.21;65.94;100077.19;3494601;28;20063;-72
2021/11/03 04:12:24;;;;;;;24.77;12.52;;;;;;;8.22;65.95;100070.88;3493350;28;20044;-72
2021/11/03 04:14:05;;;;;;;28.45;14.27;;;;;;;8.23;65.94;100075.16;3491311;28;20178;-71
2021/11/03 04:15:47;;;;;;;20.23;11.32;;;;;;;8.25;66.02;100075.81;3491431;28;20037;-71
2021/11/03 04:17:28;;;;;;;24.27;12.63;;;;;;;8.26;65.87;100080.16;3503911;28;20032;-72
2021/11/03 04:19:08;;;;;;;24.27;11.85;;;;;;;8.27;66.00;100079.16;3492365;28;20048;-72
2021/11/03 04:20:50;;;;;;;22.90;13.00;;;;;;;8.26;66.01;100088.13;3490907;28;20036;-71
2021/11/03 04:22:31;;;;;;;24.02;13.18;;;;;;;8.28;66.14;100074.66;3491541;28;20056;-72
2021/11/03 04:24:12;;;;;;;22.55;12.25;;;;;;;8.26;65.98;100080.16;3506226;28;20067;-71
2021/11/03 04:25:52;;;;;;;22.58;12.95;;;;;;;8.29;66.02;100084.31;3493423;28;20133;-72
2021/11/03 04:27:34;;;;;;;17.58;11.05;;;;;;;8.31;66.07;100103.53;3475286;28;20037;-70
2021/11/03 04:29:18;;;;;;;28.15;13.98;;;;;;;8.29;65.97;100084.31;3489975;28;20041;-71
2021/11/03 04:30:59;;;;;;;24.15;12.20;;;;;;;8.35;65.82;100088.91;3482606;28;20037;-72
2021/11/03 04:32:40;;;;;;;24.90;13.60;;;;;;;8.34;65.95;100094.38;3506507;28;20036;-71
2021/11/03 04:34:21;;;;;;;19.50;12.13;;;;;;;8.34;66.17;100099.69;3467352;28;20045;-72
2021/11/03 04:36:03;;;;;;;22.02;12.50;;;;;;;8.33;66.08;100088.25;3486928;28;20334;-72
2021/11/03 04:37:45;;;;;;;23.75;12.30;;;;;;;8.30;66.16;100092.06;3490480;28;20059;-73
2021/11/03 04:39:26;;;;;;;24.42;12.98;;;;;;;8.33;66.17;100098.06;3506900;28;20122;-71
2021/11/03 04:41:07;;;;;;;30.92;14.18;;;;;;;8.35;66.07;100093.41;3493828;28;20047;-72
2021/11/03 04:42:48;;;;;;;25.75;12.30;;;;;;;8.34;66.09;100100.56;3477873;28;20447;-72
2021/11/03 04:44:29;;;;;;;23.15;12.90;;;;;;;8.36;66.09;100097.72;3503376;28;20072;-72
2021/11/03 04:46:10;;;;;;;28.13;13.83;;;;;;;8.37;66.15;100096.72;3494473;28;20040;-71
2021/11/03 04:47:51;;;;;;;31.20;14.35;;;;;;;8.37;66.14;100088.75;3490039;28;20118;-71
2021/11/03 04:49:33;;;;;;;23.00;12.95;;;;;;;8.40;66.20;100101.72;3507048;28;20495;-71
2021/11/03 04:51:14;;;;;;;22.67;12.10;;;;;;;8.38;66.04;100103.69;3494034;28;20032;-71
2021/11/03 04:52:56;;;;;;;23.60;13.98;;;;;;;8.41;65.85;100108.69;3501156;28;20093;-71
2021/11/03 04:54:37;;;;;;;;;;;;;;;8.51;65.57;100106.66;3494033;28;20041;-71
2021/11/03 04:56:21;;;;;;;23.23;14.30;;;;;;;8.45;65.62;100104.69;3493020;28;19973;-70
2021/11/03 04:58:04;;;;;;;25.83;14.25;;;;;;;8.42;65.78;100107.69;3493231;28;20032;-72
2021/11/03 04:59:46;;;;;;;21.88;12.05;;;;;;;8.42;65.94;100115.66;3504444;28;20048;-70
2021/11/03 05:01:28;;;;;;;21.63;12.52;;;;;;;8.42;65.96;100110.34;3488255;28;20618;-73
2021/11/03 05:03:12;;;;;;;22.85;11.98;;;;;;;8.41;65.88;100108.69;3491762;28;20569;-72
2021/11/03 05:04:53;;;;;;;21.67;13.32;;;;;;;8.44;66.08;100111.00;3496736;28;20123;-73
2021/11/03 05:06:35;;;;;;;26.67;12.50;;;;;;;8.43;66.04;100109.34;3496307;28;20040;-73
2021/11/03 05:08:18;;;;;;;28.10;13.38;;;;;;;8.45;66.12;100115.31;3493825;28;20068;-72
2021/11/03 05:09:59;;;;;;;26.48;14.00;;;;;;;8.46;66.08;100109.00;3487600;28;20065;-73
2021/11/03 05:11:39;;;;;;;24.33;14.18;;;;;;;8.46;66.05;100122.28;3490361;28;20048;-73
2021/11/03 05:13:21;;;;;;;27.42;14.20;;;;;;;8.48;65.92;100112.31;3490860;28;21572;-72
2021/11/03 05:15:02;;;;;;;27.27;13.63;;;;;;;8.48;66.00;100104.34;3491287;28;20039;-73
2021/11/03 05:16:43;;;;;;;28.40;15.95;;;;;;;8.49;66.17;100121.94;3492604;28;20499;-71
2021/11/03 05:18:24;;;;;;;30.77;15.50;;;;;;;8.50;66.16;100113.81;3492818;28;20071;-71
2021/11/03 05:20:07;;;;;;;21.25;12.38;;;;;;;8.50;66.12;100107.69;3490780;28;20044;-72
2021/11/03 05:21:52;;;;;;;32.20;16.80;;;;;;;8.51;66.10;100115.44;3493599;28;20127;-72
2021/11/03 05:23:34;;;;;;;27.00;13.60;;;;;;;8.52;66.00;100118.97;3508643;28;20104;-73
2021/11/03 05:25:20;;;;;;;31.85;15.45;;;;;;;8.53;66.10;100104.66;3511973;28;20105;-73
2021/11/03 05:27:01;;;;;;;25.27;13.85;;;;;;;8.54;65.80;100114.28;3511245;28;20058;-73
2021/11/03 05:28:43;;;;;;;28.42;15.65;;;;;;;8.54;66.24;100114.28;3506431;28;20041;-74
2021/11/03 05:30:26;;;;;;;30.35;14.48;;;;;;;8.54;66.03;100111.63;3509968;28;20028;-72
2021/11/03 05:32:07;;;;;;;24.73;14.48;;;;;;;8.56;66.07;100112.28;3511123;28;20079;-72
2021/11/03 05:33:48;;;;;;;24.55;13.43;;;;;;;8.58;65.95;100112.13;3510942;28;20039;-72
2021/11/03 05:35:29;;;;;;;29.55;16.70;;;;;;;8.58;65.91;100120.09;3511990;28;20141;-73
2021/11/03 05:37:15;;;;;;;28.20;14.15;;;;;;;8.59;66.22;100111.13;3511891;28;20043;-73
2021/11/03 05:38:58;;;;;;;27.65;13.05;;;;;;;8.59;65.84;100117.25;3511095;28;20042;-72
2021/11/03 05:40:40;;;;;;;27.70;14.55;;;;;;;8.59;65.84;100116.44;3495616;28;20043;-72
2021/11/03 05:42:21;;;;;;;27.77;14.93;;;;;;;8.60;65.80;100124.25;3507277;28;20043;-72
2021/11/03 05:44:02;;;;;;;27.63;15.20;;;;;;;8.56;65.95;100112.28;3510974;28;20031;-72
2021/11/03 05:45:43;;;;;;;26.88;14.05;;;;;;;8.60;65.87;100123.44;3511730;28;20123;-72
2021/11/03 05:47:29;;;;;;;28.30;15.25;;;;;;;8.61;65.96;100125.06;3496697;28;20083;-72
2021/11/03 05:49:11;;;;;;;26.48;13.15;;;;;;;8.62;65.83;100135.53;3494093;28;20032;-72
2021/11/03 05:50:52;;;;;;;32.50;15.25;;;;;;;8.64;65.71;100128.19;3499438;28;20097;-73
2021/11/03 05:52:33;;;;;;;24.70;14.80;;;;;;;8.64;65.69;100125.53;3508642;28;20085;-73
2021/11/03 05:54:18;;;;;;;29.65;17.13;;;;;;;8.66;65.70;100134.19;3510877;28;20042;-73
2021/11/03 05:55:59;;;;;;;28.27;16.02;;;;;;;8.68;65.64;100126.06;3506772;28;20491;-72
2021/11/03 05:57:40;;;;;;;31.60;14.63;;;;;;;8.68;65.72;100120.75;3509062;28;20064;-72
2021/11/03 05:59:22;;;;;;;31.17;16.67;;;;;;;8.70;65.60;100124.88;3493424;28;20122;-73
2021/11/03 06:01:03;;;;;;;26.27;14.30;;;;;;;8.70;65.65;100129.38;3504530;28;20410;-71
2021/11/03 06:02:44;;;;;;;27.35;15.18;;;;;;;8.71;65.62;100126.53;3486015;28;20140;-72
2021/11/03 06:04:25;;;;;;;28.63;14.85;;;;;;;8.70;65.51;100122.22;3487659;28;20063;-71
2021/11/03 06:06:05;;;;;;;27.13;15.48;;;;;;;8.72;65.55;100122.88;3481273;28;20094;-71
2021/11/03 06:07:52;;;;;;;28.92;14.48;;;;;;;8.74;65.67;100126.19;3503926;28;20043;-72
2021/11/03 06:09:33;;;;;;;29.73;16.65;;;;;;;8.73;65.43;100121.88;3510336;28;20040;-72
2021/11/03 06:11:14;;;;;;;29.08;16.30;;;;;;;8.73;65.38;100127.19;3511340;28;20055;-71
2021/11/03 06:12:57;;;;;;;30.85;17.10;;;;;;;8.73;65.54;100132.50;3493372;28;20051;-71
2021/11/03 06:14:37;;;;;;;29.20;16.67;;;;;;;8.73;65.31;100132.50;3508371;28;20519;-71
2021/11/03 06:16:18;;;;;;;32.05;15.13;;;;;;;8.74;65.54;100125.34;3511112;28;20285;-72
2021/11/03 06:18:00;;;;;;;26.02;14.25;;;;;;;8.71;65.52;100121.22;3494036;28;20515;-71
2021/11/03 06:19:41;;;;;;;;;;;;;;;8.85;65.03;100126.81;3504146;28;20453;-71
2021/11/03 06:21:21;;;;;;;24.63;14.10;;;;;;;8.78;65.11;100109.88;3511269;28;19920;-72
2021/11/03 06:23:03;;;;;;;26.10;14.00;;;;;;;8.77;65.29;100125.00;3510763;28;20055;-72
2021/11/03 06:24:44;;;;;;;27.75;14.85;;;;;;;8.77;65.36;100116.22;3495434;28;20041;-72
2021/11/03 06:26:26;;;;;;;28.90;16.98;;;;;;;8.77;65.29;100118.88;3479683;28;20036;-72
2021/11/03 06:28:06;;;;;;;28.00;15.18;;;;;;;8.78;65.45;100133.78;3498928;28;20478;-72
2021/11/03 06:29:47;;;;;;;24.08;14.35;;;;;;;8.77;65.32;100124.19;3503517;28;20093;-73
2021/11/03 06:31:28;;;;;;;30.13;15.93;;;;;;;8.76;65.53;100117.22;3507446;28;20039;-72
2021/11/03 06:33:09;;;;;;;24.42;15.18;;;;;;;8.79;65.31;100115.03;3507067;28;20051;-72
2021/11/03 06:34:50;;;;;;;33.58;16.08;;;;;;;8.81;65.41;100114.88;3502806;28;20028;-74
2021/11/03 06:36:32;;;;;;;27.35;15.02;;;;;;;8.82;65.45;100111.22;3504549;28;20081;-72
2021/11/03 06:38:17;;;;;;;33.10;16.00;;;;;;;8.84;65.49;100109.22;3508656;28;20063;-71
2021/11/03 06:39:57;;;;;;;27.85;16.48;;;;;;;8.86;65.49;100109.88;3504995;28;20039;-71
2021/11/03 06:41:40;;;;;;;35.20;16.70;;;;;;;8.86;65.54;100112.53;3502708;28;20044;-72
2021/11/03 06:43:20;;;;;;;28.60;16.45;;;;;;;8.86;65.61;100099.25;3505923;28;20089;-72
2021/11/03 06:45:04;;;;;;;27.63;14.93;;;;;;;8.87;65.55;100114.16;3502571;28;20416;-71
2021/11/03 06:46:45;;;;;;;32.28;16.33;;;;;;;8.88;65.28;100092.75;3503950;28;20067;-72
2021/11/03 06:48:26;;;;;;;33.80;16.98;;;;;;;8.88;65.35;100095.41;3504985;28;20491;-72
2021/11/03 06:50:09;;;;;;;30.88;15.80;;;;;;;8.91;65.34;100094.22;3506377;28;20538;-72
2021/11/03 06:51:50;;;;;;;33.00;16.55;;;;;;;8.91;65.14;100102.22;3504932;28;20116;-70
2021/11/03 06:53:32;;;;;;;31.60;17.60;;;;;;;8.94;65.16;100089.38;3477578;28;20045;-71
2021/11/03 06:55:14;;;;;;;29.30;16.75;;;;;;;8.94;65.01;100085.91;3499818;28;20039;-72
2021/11/03 06:56:56;;;;;;;28.80;14.65;;;;;;;8.96;65.01;100091.88;3503604;28;20032;-71
2021/11/03 06:58:37;;;;;;;32.85;17.92;;;;;;;8.97;65.04;100104.16;3507037;28;20032;-71
2021/11/03 07:00:24;;;;;;;30.90;16.20;;;;;;;8.96;64.99;100094.53;3507176;28;20143;-71
2021/11/03 07:02:04;;;;;;;37.22;15.98;;;;;;;8.99;65.06;100094.19;3504598;28;20040;-71
2021/11/03 07:03:46;;;;;;;29.80;15.65;;;;;;;8.96;64.89;100094.53;3495753;28;20177;-71
2021/11/03 07:05:30;;;;;;;37.10;18.35;;;;;;;8.98;65.00;100095.16;3501514;28;20514;-71
2021/11/03 07:07:11;;;;;;;36.17;16.60;;;;;;;9.00;64.92;100103.81;3504869;28;20063;-72
2021/11/03 07:08:54;;;;;;;32.65;18.25;;;;;;;8.99;65.11;100096.84;3506190;28;20448;-71
2021/11/03 07:10:39;;;;;;;31.30;16.10;;;;;;;9.00;64.96;100092.34;3505914;28;20043;-71
2021/11/03 07:12:20;;;;;;;32.95;16.77;;;;;;;9.00;65.17;100095.81;3505625;28;20036;-71
2021/11/03 07:14:01;;;;;;;36.17;18.63;;;;;;;9.00;65.11;100090.50;3505457;28;20155;-70
2021/11/03 07:15:42;;;;;;;33.35;16.55;;;;;;;9.00;65.09;100098.50;3505867;28;20100;-74
2021/11/03 07:17:23;;;;;;;32.85;18.27;;;;;;;9.01;65.00;100094.84;3490358;28;20139;-71
2021/11/03 07:19:05;;;;;;;33.40;17.35;;;;;;;9.03;65.10;100095.47;3488153;28;20076;-70
2021/11/03 07:20:46;;;;;;;40.95;19.42;;;;;;;9.03;65.00;100081.34;3499922;28;20044;-70
2021/11/03 07:22:29;;;;;;;30.15;17.40;;;;;;;9.05;64.69;100096.13;3506352;28;20426;-71
2021/11/03 07:24:12;;;;;;;39.13;20.08;;;;;;;9.06;64.94;100088.97;3505872;28;20502;-70
2021/11/03 07:25:54;;;;;;;33.92;18.80;;;;;;;9.05;64.80;100090.00;3497901;28;20033;-72
2021/11/03 07:27:36;;;;;;;32.92;16.90;;;;;;;9.04;64.80;100094.50;3496345;28;20040;-70
2021/11/03 07:29:17;;;;;;;35.72;19.55;;;;;;;9.06;64.86;100096.97;3477827;28;20113;-69
2021/11/03 07:30:59;;;;;;;33.25;19.05;;;;;;;9.05;64.78;100087.34;3498973;28;20032;-71
2021/11/03 07:32:41;;;;;;;40.17;18.98;;;;;;;9.06;64.82;100081.84;3505730;28;20047;-70
2021/11/03 07:34:22;;;;;;;38.43;18.03;;;;;;;9.06;64.85;100086.31;3507867;28;20127;-73
2021/11/03 07:36:04;;;;;;;36.97;18.88;;;;;;;9.05;64.44;100085.50;3494243;28;20070;-70
2021/11/03 07:37:45;;;;;;;34.28;18.45;;;;;;;9.02;64.63;100085.84;3489292;28;20130;-71
2021/11/03 07:39:26;;;;;;;34.72;16.83;;;;;;;9.04;64.71;100099.00;3506479;28;20039;-70
2021/11/03 07:41:07;;;;;;;31.65;19.00;;;;;;;9.03;64.83;100092.81;3508691;28;20047;-70
2021/11/03 07:42:48;;;;;;;35.70;18.17;;;;;;;9.00;64.87;100077.22;3506548;28;20035;-72
2021/11/03 07:44:30;;;;;;;36.83;19.42;;;;;;;9.01;64.74;100078.91;3505435;28;20048;-72
2021/11/03 07:46:13;;;;;;;34.65;17.38;;;;;;;9.04;64.78;100077.72;3505939;28;20047;-69
2021/11/03 07:47:55;;;;;;;34.35;20.27;;;;;;;9.04;64.82;100077.72;3471772;28;20531;-72
2021/11/03 07:49:37;;;;;;;36.72;19.40;;;;;;;9.03;64.85;100073.38;3487492;28;20131;-71
2021/11/03 07:51:19;;;;;;;33.45;18.63;;;;;;;9.04;64.64;100077.72;3483240;28;20068;-70
2021/11/03 07:53:00;;;;;;;33.15;19.10;;;;;;;9.05;64.79;100072.22;3479579;28;20115;-71